Time;durP1;ratioP1;P1;durP2;ratioP2;P2;SDS_P1;SDS_P2;PMS_P1;PMS_P2;Temp;Humidity;BMP_temperature;BMP_pressure;BME280_temperature;BME280_humidity;BME280_pressure;Samples;Min_cycle;Max_cycle;Signal;HPM_P1;HPM_P2
2023/01/28 00:01:08;;;;;;;15.27;13.65;;;2.00;99.90;;;;;;4921954;28;90497;-32
2023/01/28 00:03:34;;;;;;;14.13;12.68;;;2.00;99.90;;;;;;4922045;28;91225;-32
2023/01/28 00:06:10;;;;;;;15.80;14.35;;;2.00;99.90;;;;;;4921747;28;89672;-31
2023/01/28 00:08:36;;;;;;;13.73;12.20;;;2.00;99.90;;;;;;4921897;28;89783;-33
2023/01/28 00:11:04;;;;;;;15.45;13.15;;;2.00;99.90;;;;;;4921704;28;90345;-31
2023/01/28 00:13:30;;;;;;;15.07;13.38;;;2.00;99.90;;;;;;4922222;28;90015;-32
2023/01/28 00:15:58;;;;;;;15.10;13.07;;;2.00;99.90;;;;;;4921907;28;88813;-33
2023/01/28 00:18:25;;;;;;;15.50;13.30;;;2.00;99.90;;;;;;4921566;28;90018;-33
2023/01/28 00:21:06;;;;;;;15.70;13.48;;;2.00;99.90;;;;;;4921975;28;89982;-35
2023/01/28 00:23:34;;;;;;;14.52;13.02;;;2.00;99.90;;;;;;4921014;28;90114;-34
2023/01/28 00:26:01;;;;;;;15.65;12.95;;;1.90;99.90;;;;;;4920851;28;89660;-33
2023/01/28 00:28:27;;;;;;;15.73;14.15;;;2.00;99.90;;;;;;4921931;28;90289;-31
2023/01/28 00:30:52;;;;;;;20.38;15.35;;;2.00;99.90;;;;;;4920954;28;89837;-34
2023/01/28 00:33:18;;;;;;;16.65;13.80;;;2.00;99.90;;;;;;4921762;28;89882;-33
2023/01/28 00:35:44;;;;;;;16.77;14.95;;;2.00;99.90;;;;;;4921045;28;89075;-34
2023/01/28 00:38:10;;;;;;;15.68;13.95;;;2.00;99.90;;;;;;4921882;28;90290;-31
2023/01/28 00:40:36;;;;;;;15.65;14.05;;;2.00;99.90;;;;;;4921213;28;89565;-35
2023/01/28 00:43:01;;;;;;;15.07;13.50;;;2.00;99.90;;;;;;4921262;28;89638;-35
2023/01/28 00:45:27;;;;;;;14.75;13.25;;;2.00;99.90;;;;;;4921933;28;89399;-31
2023/01/28 00:47:53;;;;;;;15.30;13.55;;;1.90;99.90;;;;;;4921067;28;90915;-32
2023/01/28 00:50:20;;;;;;;13.45;11.93;;;1.90;99.90;;;;;;4920982;28;90183;-34
2023/01/28 00:52:46;;;;;;;17.70;13.57;;;1.90;99.90;;;;;;4921070;28;91615;-33
2023/01/28 00:55:12;;;;;;;17.98;13.90;;;1.90;99.90;;;;;;4921270;28;89966;-33
2023/01/28 00:57:38;;;;;;;14.30;13.02;;;1.90;99.90;;;;;;4921484;28;90365;-35
2023/01/28 01:00:05;;;;;;;15.60;14.10;;;1.90;99.90;;;;;;4920624;28;89922;-34
2023/01/28 01:02:31;;;;;;;14.05;12.75;;;1.90;99.90;;;;;;4920857;28;91276;-32
2023/01/28 01:04:59;;;;;;;13.70;12.20;;;1.90;99.90;;;;;;4920779;28;90270;-32
2023/01/28 01:07:42;;;;;;;14.52;13.02;;;1.90;99.90;;;;;;4921651;28;89650;-32
2023/01/28 01:10:09;;;;;;;13.80;11.43;;;1.90;99.90;;;;;;4921315;28;90195;-35
2023/01/28 01:12:35;;;;;;;13.55;12.15;;;1.90;99.90;;;;;;4921482;28;88589;-31
2023/01/28 01:15:01;;;;;;;13.50;12.20;;;2.00;99.90;;;;;;4919844;28;89684;-32
2023/01/28 01:17:30;;;;;;;13.75;12.40;;;1.90;99.90;;;;;;4921645;28;90699;-35
2023/01/28 01:19:56;;;;;;;13.27;11.90;;;1.90;99.90;;;;;;4920786;28;89284;-31
2023/01/28 01:22:21;;;;;;;13.75;12.35;;;1.80;99.90;;;;;;4921337;28;90076;-34
2023/01/28 01:24:47;;;;;;;12.88;10.13;;;1.80;99.90;;;;;;4920533;28;89377;-34
2023/01/28 01:27:13;;;;;;;10.48;9.40;;;1.70;99.90;;;;;;4920947;28;90244;-31
2023/01/28 01:29:38;;;;;;;10.60;9.52;;;1.80;99.90;;;;;;4920819;28;89910;-32
2023/01/28 01:32:04;;;;;;;10.70;9.60;;;1.90;99.90;;;;;;4921616;28;90329;-34
2023/01/28 01:34:30;;;;;;;10.75;9.73;;;1.80;99.90;;;;;;4921749;28;89238;-34
2023/01/28 01:36:56;;;;;;;12.00;9.90;;;1.80;99.90;;;;;;4921175;28;90117;-34
2023/01/28 01:39:21;;;;;;;11.13;9.32;;;1.70;99.90;;;;;;4920737;28;91666;-32
2023/01/28 01:41:47;;;;;;;10.65;9.55;;;1.80;99.90;;;;;;4920850;28;91347;-32
2023/01/28 01:44:47;;;;;;;9.93;8.93;;;1.90;99.90;;;;;;4921635;28;88265;-34
2023/01/28 01:47:13;;;;;;;9.63;8.55;;;1.80;99.90;;;;;;4921165;28;90214;-35
2023/01/28 01:49:39;;;;;;;9.48;8.25;;;1.80;99.90;;;;;;4920465;28;90944;-31
2023/01/28 01:52:12;;;;;;;10.48;8.38;;;1.80;99.90;;;;;;4920931;28;89700;-31
2023/01/28 01:54:40;;;;;;;9.43;8.48;;;1.80;99.90;;;;;;4921333;28;89401;-33
2023/01/28 01:57:08;;;;;;;10.70;9.60;;;1.80;99.90;;;;;;4921332;28;89869;-33
2023/01/28 01:59:35;;;;;;;8.43;7.57;;;1.80;99.90;;;;;;4921013;28;90682;-30
2023/01/28 02:02:04;;;;;;;9.52;8.18;;;1.80;99.90;;;;;;4921068;28;89841;-32
2023/01/28 02:04:42;;;;;;;13.55;9.75;;;1.80;99.90;;;;;;4920553;28;88918;-33
2023/01/28 02:07:11;;;;;;;10.05;9.02;;;1.80;99.90;;;;;;4921369;28;89687;-33
2023/01/28 02:09:37;;;;;;;9.48;8.32;;;1.80;99.90;;;;;;4921209;28;89868;-33
2023/01/28 02:12:13;;;;;;;11.48;9.25;;;1.80;99.90;;;;;;4921019;28;88692;-32
2023/01/28 02:14:48;;;;;;;12.30;8.85;;;1.80;99.90;;;;;;4920469;28;89095;-32
2023/01/28 02:17:15;;;;;;;10.10;8.25;;;1.80;99.90;;;;;;4921368;28;89124;-31
2023/01/28 02:19:51;;;;;;;8.32;7.53;;;1.60;99.90;;;;;;4920112;28;89638;-34
2023/01/28 02:22:20;;;;;;;12.30;8.82;;;1.60;99.90;;;;;;4921302;28;89646;-31
2023/01/28 02:24:46;;;;;;;;;;;1.60;99.90;;;;;;4921134;28;89098;-35
2023/01/28 02:27:26;;;;;;;12.38;9.32;;;1.70;99.90;;;;;;4922177;28;90426;-33
2023/01/28 02:30:05;;;;;;;9.75;8.50;;;1.60;99.90;;;;;;4920178;28;90862;-31
2023/01/28 02:32:43;;;;;;;11.88;7.50;;;1.60;99.90;;;;;;4920630;28;90364;-31
2023/01/28 02:35:12;;;;;;;;;;;1.70;99.90;;;;;;4921639;28;88753;-30
2023/01/28 02:37:40;;;;;;;;;;;1.60;99.90;;;;;;4921778;28;91725;-32
2023/01/28 02:40:17;;;;;;;9.32;8.20;;;1.60;99.90;;;;;;4921413;28;89733;-34
2023/01/28 02:42:43;;;;;;;11.37;9.43;;;1.60;99.90;;;;;;4919895;28;89466;-32
2023/01/28 02:48:12;;;;;;;9.57;8.00;;;1.70;99.90;;;;;;4922279;28;90299;-34
2023/01/28 02:51:06;;;;;;;11.10;9.38;;;1.60;99.90;;;;;;4922986;28;89592;-35
2023/01/28 02:53:45;;;;;;;12.07;9.60;;;1.60;99.90;;;;;;4923925;28;89393;-33
2023/01/28 02:56:13;;;;;;;11.65;10.05;;;1.70;99.90;;;;;;4923634;28;90558;-31
2023/01/28 02:58:48;;;;;;;9.55;8.65;;;1.60;99.90;;;;;;4923230;28;89930;-31
2023/01/28 03:01:41;;;;;;;12.95;9.82;;;1.60;99.90;;;;;;4923864;28;89694;-35
2023/01/28 03:04:14;;;;;;;9.63;8.40;;;1.60;99.90;;;;;;4923881;28;90131;-32
2023/01/28 03:06:47;;;;;;;12.10;9.07;;;1.60;99.90;;;;;;4923759;28;89487;-31
2023/01/28 03:09:24;;;;;;;11.05;10.05;;;1.60;99.90;;;;;;4922875;28;89843;-33
2023/01/28 03:38:19;;;;;;;10.07;8.23;;;1.60;99.90;;;;;;4923515;28;90228;-33
2023/01/28 03:40:58;;;;;;;11.25;8.38;;;1.70;99.90;;;;;;4923239;28;88823;-32
2023/01/28 03:43:24;;;;;;;10.85;9.43;;;1.80;99.90;;;;;;4923370;28;88842;-33
2023/01/28 03:45:51;;;;;;;10.98;9.48;;;1.60;99.90;;;;;;4922032;28;89728;-34
2023/01/28 03:48:23;;;;;;;11.65;10.43;;;1.70;99.90;;;;;;4922573;28;89334;-33
2023/01/28 03:50:49;;;;;;;11.15;10.13;;;1.60;99.90;;;;;;4921541;28;89368;-32
2023/01/28 03:53:16;;;;;;;13.55;10.15;;;1.60;99.90;;;;;;4922794;28;90162;-33
2023/01/28 03:55:43;;;;;;;12.23;10.00;;;1.60;99.90;;;;;;4921702;28;90425;-31
2023/01/28 03:58:09;;;;;;;11.88;8.63;;;1.50;99.90;;;;;;4921790;28;89410;-34
2023/01/28 04:00:42;;;;;;;13.35;10.80;;;1.50;99.90;;;;;;4922228;28;89270;-37
2023/01/28 04:03:15;;;;;;;11.00;9.93;;;1.50;99.90;;;;;;4922239;28;89835;-32
2023/01/28 04:06:01;;;;;;;13.20;10.23;;;1.70;99.90;;;;;;4922182;28;88368;-31
2023/01/28 04:08:27;;;;;;;11.43;9.70;;;1.70;99.90;;;;;;4922198;28;89441;-31
2023/01/28 04:10:53;;;;;;;12.52;10.13;;;1.60;99.90;;;;;;4923215;28;89463;-34
2023/01/28 04:13:18;;;;;;;11.65;8.82;;;1.60;99.90;;;;;;4921738;28;91441;-31
2023/01/28 04:15:44;;;;;;;11.43;9.98;;;1.70;99.90;;;;;;4921681;28;90367;-33
2023/01/28 04:18:11;;;;;;;14.30;10.52;;;1.70;99.90;;;;;;4922167;28;89481;-32
2023/01/28 04:20:37;;;;;;;10.77;9.77;;;1.50;99.90;;;;;;4921343;28;88267;-34
2023/01/28 04:23:03;;;;;;;10.52;9.50;;;1.50;99.90;;;;;;4922723;28;90273;-31
2023/01/28 04:25:30;;;;;;;15.15;11.00;;;1.50;99.90;;;;;;4922243;28;91188;-32
2023/01/28 04:27:56;;;;;;;17.83;9.40;;;1.50;99.90;;;;;;4921194;28;89114;-32
2023/01/28 04:30:22;;;;;;;11.45;9.90;;;1.50;99.90;;;;;;4922414;28;87617;-32
2023/01/28 04:32:51;;;;;;;11.05;9.32;;;1.50;99.90;;;;;;4921466;28;90223;-33
2023/01/28 04:35:18;;;;;;;9.57;8.75;;;1.40;99.90;;;;;;4921840;28;89747;-33
2023/01/28 04:37:44;;;;;;;11.25;9.70;;;1.40;99.90;;;;;;4921975;28;88773;-31
2023/01/28 04:40:11;;;;;;;10.77;8.90;;;1.50;99.90;;;;;;4922128;28;89727;-32
2023/01/28 04:42:38;;;;;;;12.43;9.88;;;1.40;99.90;;;;;;4922042;28;90141;-33
2023/01/28 04:45:04;;;;;;;10.25;9.25;;;1.40;99.90;;;;;;4921372;28;89593;-32
2023/01/28 04:47:30;;;;;;;11.07;9.23;;;1.40;99.90;;;;;;4922066;28;89192;-31
2023/01/28 04:49:55;;;;;;;9.45;8.55;;;1.40;99.90;;;;;;4921398;28;88274;-32
2023/01/28 04:52:21;;;;;;;10.50;8.85;;;1.40;99.90;;;;;;4921489;28;90762;-31
2023/01/28 04:54:47;;;;;;;9.90;9.00;;;1.40;99.90;;;;;;4921652;28;90834;-31
2023/01/28 04:57:12;;;;;;;10.25;8.80;;;1.40;99.90;;;;;;4921736;28;89407;-33
2023/01/28 04:59:38;;;;;;;11.88;10.68;;;1.40;99.90;;;;;;4922063;28;88412;-34
2023/01/28 05:02:04;;;;;;;11.38;9.55;;;1.40;99.90;;;;;;4921056;28;89597;-32
2023/01/28 05:04:30;;;;;;;9.73;8.32;;;1.40;99.90;;;;;;4921402;28;90766;-32
2023/01/28 05:06:57;;;;;;;9.75;8.70;;;1.40;99.90;;;;;;4920902;28;89242;-33
2023/01/28 05:09:22;;;;;;;8.32;6.88;;;1.40;99.90;;;;;;4921554;28;89152;-34
2023/01/28 05:11:48;;;;;;;8.73;7.85;;;1.40;99.90;;;;;;4921129;28;90250;-34
2023/01/28 05:14:14;;;;;;;9.63;8.52;;;1.40;99.90;;;;;;4921443;28;89678;-31
2023/01/28 05:16:39;;;;;;;8.30;7.38;;;1.40;99.90;;;;;;4921365;28;89706;-34
2023/01/28 05:19:05;;;;;;;9.68;7.85;;;1.40;99.90;;;;;;4921555;28;88776;-32
2023/01/28 05:21:30;;;;;;;8.18;7.03;;;1.40;99.90;;;;;;4921166;28;90163;-34
2023/01/28 05:23:56;;;;;;;8.60;6.07;;;1.40;99.90;;;;;;4921865;28;90216;-31
2023/01/28 05:26:21;;;;;;;9.85;7.10;;;1.40;99.90;;;;;;4921118;28;90121;-31
2023/01/28 05:28:47;;;;;;;8.68;6.85;;;1.40;99.90;;;;;;4921269;28;89314;-31
2023/01/28 05:31:13;;;;;;;7.75;7.00;;;1.40;99.90;;;;;;4920990;28;90374;-32
2023/01/28 05:33:38;;;;;;;8.30;7.50;;;1.40;99.90;;;;;;4920922;28;89743;-33
2023/01/28 05:36:04;;;;;;;8.32;7.30;;;1.30;99.90;;;;;;4921088;28;89881;-31
2023/01/28 05:38:30;;;;;;;7.63;6.90;;;1.30;99.90;;;;;;4920911;28;88617;-33
2023/01/28 05:40:55;;;;;;;8.57;7.80;;;1.30;99.90;;;;;;4921347;28;89635;-31
2023/01/28 05:43:21;;;;;;;10.85;6.88;;;1.30;99.90;;;;;;4920995;28;89272;-32
2023/01/28 05:45:47;;;;;;;7.38;6.78;;;1.30;99.90;;;;;;4921277;28;90150;-34
2023/01/28 05:48:13;;;;;;;7.70;6.97;;;1.30;99.90;;;;;;4920959;28;89723;-32
2023/01/28 05:50:39;;;;;;;7.65;6.88;;;1.30;99.90;;;;;;4920145;28;88944;-34
2023/01/28 05:53:08;;;;;;;9.02;7.50;;;1.30;99.90;;;;;;4921194;28;90418;-31
2023/01/28 05:55:33;;;;;;;7.25;6.55;;;1.30;99.90;;;;;;4921016;28;92466;-31
2023/01/28 05:57:59;;;;;;;7.10;6.47;;;1.30;99.90;;;;;;4920577;28;89286;-32
2023/01/28 06:00:24;;;;;;;9.60;7.70;;;1.30;99.90;;;;;;4920847;28;90688;-33
2023/01/28 06:02:51;;;;;;;7.60;6.45;;;1.30;99.90;;;;;;4920476;28;89211;-33
2023/01/28 06:05:17;;;;;;;7.72;7.05;;;1.30;99.90;;;;;;4921318;28;89862;-34
2023/01/28 06:07:46;;;;;;;10.63;7.38;;;1.30;99.90;;;;;;4920810;28;89449;-33
2023/01/28 06:10:13;;;;;;;8.93;7.75;;;1.30;99.90;;;;;;4920840;28;90511;-31
2023/01/28 06:12:39;;;;;;;12.75;7.80;;;1.30;99.90;;;;;;4920415;28;88811;-31
2023/01/28 06:15:05;;;;;;;9.57;8.07;;;1.30;99.90;;;;;;4920866;28;89732;-34
2023/01/28 06:17:31;;;;;;;8.75;7.72;;;1.30;99.90;;;;;;4920696;28;88020;-31
2023/01/28 06:19:56;;;;;;;9.88;8.48;;;1.30;99.90;;;;;;4920210;28;89804;-34
2023/01/28 06:22:22;;;;;;;11.38;8.55;;;1.30;99.90;;;;;;4922059;28;89606;-31
2023/01/28 06:24:48;;;;;;;8.85;7.95;;;1.30;99.90;;;;;;4923345;28;90533;-31
2023/01/28 06:27:13;;;;;;;9.43;8.35;;;1.30;99.90;;;;;;4924951;28;88689;-31
2023/01/28 06:29:39;;;;;;;9.63;8.05;;;1.30;99.90;;;;;;4924059;28;90231;-31
2023/01/28 06:32:06;;;;;;;8.80;7.47;;;1.30;99.90;;;;;;4923365;28;89200;-34
2023/01/28 06:34:32;;;;;;;10.32;7.00;;;1.30;99.90;;;;;;4924287;28;89593;-32
2023/01/28 06:36:57;;;;;;;8.82;8.02;;;1.30;99.90;;;;;;4923580;28;89617;-32
2023/01/28 06:39:25;;;;;;;8.98;6.65;;;1.30;99.90;;;;;;4924336;28;89870;-34
2023/01/28 06:41:51;;;;;;;9.23;8.25;;;1.20;99.90;;;;;;4923562;28;90245;-32
2023/01/28 06:44:17;;;;;;;10.02;9.13;;;1.20;99.90;;;;;;4923409;28;91390;-31
2023/01/28 06:46:42;;;;;;;8.73;7.78;;;1.20;99.90;;;;;;4923831;28;88998;-31
2023/01/28 06:49:08;;;;;;;8.10;7.38;;;1.20;99.90;;;;;;4923125;28;90129;-31
2023/01/28 06:51:33;;;;;;;8.30;7.32;;;1.20;99.90;;;;;;4924225;28;88958;-30
2023/01/28 06:53:59;;;;;;;8.02;6.65;;;1.20;99.90;;;;;;4923498;28;89991;-31
2023/01/28 06:56:24;;;;;;;9.38;7.07;;;1.20;99.90;;;;;;4923693;28;89278;-34
2023/01/28 06:58:50;;;;;;;10.98;9.18;;;1.20;99.90;;;;;;4924155;28;90484;-30
2023/01/28 07:01:16;;;;;;;11.70;8.68;;;1.20;99.90;;;;;;4923719;28;88666;-31
2023/01/28 07:03:42;;;;;;;9.88;8.32;;;1.20;99.90;;;;;;4923796;28;90168;-32
2023/01/28 07:06:08;;;;;;;8.65;7.90;;;1.20;99.90;;;;;;4922745;28;89729;-33
2023/01/28 07:08:33;;;;;;;9.88;8.70;;;1.20;99.90;;;;;;4923588;28;90296;-31
2023/01/28 07:10:59;;;;;;;10.90;8.48;;;1.20;99.90;;;;;;4923482;28;90146;-30
2023/01/28 07:13:25;;;;;;;10.30;8.88;;;1.20;99.90;;;;;;4923801;28;89098;-31
2023/01/28 07:15:51;;;;;;;11.85;9.77;;;1.20;99.90;;;;;;4923503;28;89101;-30
2023/01/28 07:18:17;;;;;;;10.25;9.18;;;1.20;99.90;;;;;;4923044;28;90382;-31
2023/01/28 07:20:42;;;;;;;12.65;9.35;;;1.20;99.90;;;;;;4922666;28;89108;-31
2023/01/28 07:23:08;;;;;;;11.90;10.70;;;1.20;99.90;;;;;;4923296;28;90612;-33
2023/01/28 07:25:34;;;;;;;10.02;9.02;;;1.20;99.90;;;;;;4922864;28;89239;-31
2023/01/28 07:28:00;;;;;;;11.73;9.48;;;1.20;99.90;;;;;;4923376;28;88745;-33
2023/01/28 07:30:26;;;;;;;12.38;10.77;;;1.20;99.90;;;;;;4922558;28;90010;-31
2023/01/28 07:32:56;;;;;;;13.68;9.63;;;1.20;99.90;;;;;;4921587;28;90805;-34
2023/01/28 07:35:23;;;;;;;12.20;10.88;;;1.20;99.90;;;;;;4923638;28;89797;-31
2023/01/28 07:37:57;;;;;;;13.35;10.43;;;1.20;99.90;;;;;;4922822;28;90243;-31
2023/01/28 07:40:23;;;;;;;11.00;9.90;;;1.20;99.90;;;;;;4922048;28;89526;-33
2023/01/28 07:42:49;;;;;;;15.52;9.65;;;1.20;99.90;;;;;;4923253;28;89923;-31
2023/01/28 07:45:15;;;;;;;10.90;8.98;;;1.20;99.90;;;;;;4922648;28;89212;-34
2023/01/28 07:47:41;;;;;;;10.32;8.98;;;1.20;99.90;;;;;;4923176;28;89922;-30
2023/01/28 07:50:07;;;;;;;12.93;10.50;;;1.20;99.90;;;;;;4922587;28;89700;-30
2023/01/28 07:52:38;;;;;;;14.35;10.30;;;1.30;99.90;;;;;;4921459;28;89403;-32
2023/01/28 07:55:04;;;;;;;15.38;10.05;;;1.20;99.90;;;;;;4921765;28;89299;-33
2023/01/28 07:57:30;;;;;;;15.32;10.25;;;1.20;99.90;;;;;;4921966;28;90384;-34
2023/01/28 07:59:56;;;;;;;10.48;9.38;;;1.30;99.90;;;;;;4922321;28;89753;-33
2023/01/28 08:02:21;;;;;;;15.32;10.68;;;1.30;99.90;;;;;;4922368;28;89653;-32
2023/01/28 08:04:47;;;;;;;13.18;9.45;;;1.30;99.90;;;;;;4921909;28;90185;-31
2023/01/28 08:07:12;;;;;;;11.18;9.88;;;1.30;99.90;;;;;;4922507;28;89831;-31
2023/01/28 08:09:38;;;;;;;12.23;10.27;;;1.30;99.90;;;;;;4922535;28;89461;-30
2023/01/28 08:12:04;;;;;;;16.13;11.00;;;1.30;99.90;;;;;;4921804;28;89280;-33
2023/01/28 08:14:29;;;;;;;11.35;10.05;;;1.30;99.90;;;;;;4921503;28;89936;-34
2023/01/28 08:16:56;;;;;;;12.85;10.13;;;1.30;99.90;;;;;;4921841;28;90505;-31
2023/01/28 08:19:21;;;;;;;11.48;10.32;;;1.20;99.90;;;;;;4921168;28;90700;-31
2023/01/28 08:21:47;;;;;;;13.48;10.90;;;1.20;99.90;;;;;;4921505;28;90490;-31
2023/01/28 08:24:13;;;;;;;13.38;11.82;;;1.10;99.90;;;;;;4922204;28;89717;-30
2023/01/28 08:26:38;;;;;;;12.82;10.68;;;1.10;99.90;;;;;;4921389;28;90239;-30
2023/01/28 08:29:04;;;;;;;12.70;10.32;;;1.10;99.90;;;;;;4921540;28;89710;-32
2023/01/28 08:31:30;;;;;;;13.50;12.07;;;1.10;99.90;;;;;;4920930;28;89567;-31
2023/01/28 08:33:55;;;;;;;13.90;11.13;;;1.20;99.90;;;;;;4921990;28;89017;-33
2023/01/28 08:36:21;;;;;;;16.50;12.10;;;1.20;99.90;;;;;;4921543;28;90520;-31
2023/01/28 08:38:53;;;;;;;14.55;11.93;;;1.30;99.90;;;;;;4921159;28;90209;-31
2023/01/28 08:41:22;;;;;;;16.02;12.68;;;1.40;99.90;;;;;;4920640;28;89495;-32
2023/01/28 08:43:47;;;;;;;13.43;12.02;;;1.40;99.90;;;;;;4920868;28;90785;-33
2023/01/28 08:46:13;;;;;;;15.95;11.38;;;1.40;99.90;;;;;;4921206;28;90123;-31
2023/01/28 08:48:39;;;;;;;14.80;13.25;;;1.50;99.90;;;;;;4921105;28;89882;-30
2023/01/28 08:51:04;;;;;;;16.10;13.65;;;1.50;99.90;;;;;;4921189;28;89672;-32
2023/01/28 08:53:30;;;;;;;14.20;12.55;;;1.50;99.90;;;;;;4921254;28;88853;-31
2023/01/28 08:55:56;;;;;;;18.98;14.48;;;1.60;99.90;;;;;;4920842;28;90177;-32
2023/01/28 08:58:21;;;;;;;16.75;12.63;;;1.70;99.90;;;;;;4921868;28;90086;-31
2023/01/28 09:00:48;;;;;;;13.88;12.40;;;1.70;99.90;;;;;;4920855;28;89869;-31
2023/01/28 09:03:14;;;;;;;13.23;11.77;;;1.80;99.90;;;;;;4921319;28;89001;-32
2023/01/28 09:05:40;;;;;;;14.43;12.90;;;1.90;99.90;;;;;;4921357;28;90094;-34
2023/01/28 09:08:09;;;;;;;14.65;11.93;;;2.00;99.90;;;;;;4920672;28;90559;-33
2023/01/28 09:10:36;;;;;;;17.63;13.20;;;2.20;99.90;;;;;;4920614;28;90615;-32
2023/01/28 09:13:10;;;;;;;15.23;13.68;;;2.40;99.90;;;;;;4920468;28;88067;-34
2023/01/28 09:15:36;;;;;;;16.60;14.70;;;2.60;99.90;;;;;;4919638;28;90477;-32
2023/01/28 09:18:02;;;;;;;14.30;12.80;;;2.80;99.90;;;;;;4920867;28;89697;-34
2023/01/28 09:20:28;;;;;;;14.20;11.68;;;3.20;99.90;;;;;;4927348;28;88701;-34
2023/01/28 09:22:54;;;;;;;15.55;13.00;;;3.40;99.90;;;;;;4920741;28;89300;-33
2023/01/28 09:25:19;;;;;;;16.00;14.25;;;3.40;99.90;;;;;;4918553;28;90231;-33
2023/01/28 09:27:45;;;;;;;15.57;13.85;;;3.20;99.90;;;;;;4918106;28;89796;-32
2023/01/28 09:30:12;;;;;;;16.83;13.55;;;3.20;99.90;;;;;;4918393;28;89439;-32
2023/01/28 09:32:38;;;;;;;14.00;12.52;;;3.20;99.90;;;;;;4917321;28;89971;-31
2023/01/28 09:35:04;;;;;;;15.27;12.73;;;3.20;99.90;;;;;;4917862;28;89275;-33
2023/01/28 09:37:30;;;;;;;14.23;12.80;;;3.20;99.90;;;;;;4919028;28;89562;-33
2023/01/28 09:39:55;;;;;;;15.77;13.48;;;3.20;99.90;;;;;;4918083;28;89466;-33
2023/01/28 09:42:47;;;;;;;14.82;12.82;;;3.20;99.90;;;;;;4918433;28;88706;-31
2023/01/28 09:45:37;;;;;;;15.30;12.73;;;3.10;99.90;;;;;;4917574;28;90202;-32
2023/01/28 09:48:05;;;;;;;18.33;12.43;;;3.10;99.90;;;;;;4917844;28;90191;-33
2023/01/28 09:50:44;;;;;;;10.77;9.60;;;3.10;99.90;;;;;;4968426;22;90018;-31
2023/01/28 09:53:24;;;;;;;12.95;10.85;;;3.10;99.90;;;;;;4938034;28;88448;-31
2023/01/28 09:55:55;;;;;;;14.82;11.68;;;3.10;99.90;;;;;;4936913;28;89849;-32
2023/01/28 09:58:21;;;;;;;15.15;11.60;;;3.10;99.90;;;;;;4937103;28;90637;-32
2023/01/28 10:00:59;;;;;;;13.77;11.23;;;3.00;99.90;;;;;;4936956;28;90492;-35
2023/01/28 10:03:39;;;;;;;15.68;11.77;;;3.10;99.90;;;;;;4938097;28;89181;-33
2023/01/28 10:06:13;;;;;;;14.30;11.05;;;3.00;99.90;;;;;;4937131;28;90212;-31
2023/01/28 10:09:01;;;;;;;12.98;11.88;;;3.10;99.90;;;;;;4937533;28;90822;-31
2023/01/28 10:11:45;;;;;;;14.40;10.27;;;3.20;99.90;;;;;;4937706;28;89809;-33
2023/01/28 10:14:11;;;;;;;11.73;10.50;;;3.30;99.90;;;;;;4935892;28;89293;-33
2023/01/28 10:16:44;;;;;;;14.10;11.60;;;3.40;99.90;;;;;;4936520;28;89062;-33
2023/01/28 10:19:17;;;;;;;10.85;9.68;;;3.60;99.90;;;;;;4937130;28;89318;-34
2023/01/28 10:21:48;;;;;;;11.48;10.18;;;3.60;99.90;;;;;;4937814;28;90226;-30
2023/01/28 10:24:57;;;;;;;12.02;10.77;;;3.80;99.90;;;;;;4937480;28;89577;-31
2023/01/28 10:27:26;;;;;;;11.85;8.90;;;3.90;99.90;;;;;;4898032;28;90053;-31
2023/01/28 10:29:54;;;;;;;14.82;10.25;;;4.00;99.90;;;;;;4934255;28;89849;-33
2023/01/28 10:32:35;;;;;;;12.48;9.85;;;4.00;99.90;;;;;;4937389;28;89830;-32
2023/01/28 10:35:02;;;;;;;10.55;9.55;;;4.00;99.90;;;;;;4938106;28;89513;-31
2023/01/28 10:37:35;;;;;;;12.75;10.45;;;4.00;99.90;;;;;;4938244;28;90143;-32
2023/01/28 10:40:02;;;;;;;15.13;10.43;;;3.90;99.90;;;;;;4937787;28;89247;-32
2023/01/28 10:42:33;;;;;;;11.63;10.43;;;3.80;99.90;;;;;;4936243;28;89234;-31
2023/01/28 10:45:13;;;;;;;13.38;10.82;;;3.80;99.90;;;;;;4936671;28;89483;-31
2023/01/28 10:47:46;;;;;;;15.40;12.00;;;3.80;99.90;;;;;;4937356;28;90359;-31
2023/01/28 10:50:48;;;;;;;11.35;10.27;;;3.70;99.90;;;;;;4935704;28;90914;-32
2023/01/28 10:53:14;;;;;;;14.30;11.77;;;3.70;99.90;;;;;;4937532;28;90583;-32
2023/01/28 10:55:54;;;;;;;12.52;11.35;;;3.70;99.90;;;;;;4936311;28;88894;-31
2023/01/28 10:58:26;;;;;;;13.52;11.95;;;3.80;99.90;;;;;;4936514;28;90300;-35
2023/01/28 11:00:53;;;;;;;13.52;11.60;;;3.90;99.90;;;;;;4937131;28;89960;-32
2023/01/28 11:03:20;;;;;;;12.10;10.60;;;4.00;99.90;;;;;;4936432;28;89606;-32
2023/01/28 11:05:54;;;;;;;12.48;10.30;;;4.00;99.90;;;;;;4936251;28;89874;-33
2023/01/28 11:08:21;;;;;;;10.52;9.43;;;4.20;99.90;;;;;;4938528;28;90199;-32
2023/01/28 11:10:48;;;;;;;16.00;12.40;;;4.20;99.90;;;;;;4940777;28;89330;-32
2023/01/28 11:13:23;;;;;;;14.27;11.98;;;4.30;99.90;;;;;;4939958;28;89642;-33
2023/01/28 11:15:53;;;;;;;13.00;11.68;;;4.40;99.90;;;;;;4939591;28;89534;-32
2023/01/28 11:18:44;;;;;;;13.98;11.18;;;4.50;99.90;;;;;;4940814;28;89918;-32
2023/01/28 11:21:18;;;;;;;13.32;8.88;;;4.40;99.90;;;;;;4940815;28;89538;-33
2023/01/28 11:24:13;;;;;;;14.65;11.38;;;4.40;99.90;;;;;;4940555;28;89968;-32
2023/01/28 11:26:44;;;;;;;11.20;10.15;;;4.30;99.90;;;;;;4940089;28;89075;-31
2023/01/28 11:29:21;;;;;;;14.98;11.95;;;4.10;99.90;;;;;;4939536;28;90140;-31
2023/01/28 11:31:47;;;;;;;14.17;11.33;;;4.20;99.90;;;;;;4939398;28;88709;-33
2023/01/28 11:34:17;;;;;;;12.27;11.05;;;4.30;99.90;;;;;;4940019;28;89366;-32
2023/01/28 11:37:09;;;;;;;13.38;11.35;;;4.40;99.90;;;;;;4939774;28;88420;-34
2023/01/28 11:39:35;;;;;;;13.05;11.15;;;4.50;99.90;;;;;;4939096;28;88921;-34
2023/01/28 11:42:20;;;;;;;15.05;11.15;;;4.60;99.90;;;;;;4939611;28;90557;-33
2023/01/28 11:44:47;;;;;;;13.50;10.30;;;4.80;99.90;;;;;;4939289;28;90538;-33
2023/01/28 11:47:47;;;;;;;12.00;10.77;;;5.10;99.90;;;;;;4939776;28;89039;-32
2023/01/28 11:50:44;;;;;;;10.32;7.85;;;5.40;99.90;;;;;;4938897;28;90902;-33
2023/01/28 11:53:39;;;;;;;13.60;11.27;;;5.60;99.90;;;;;;4917783;28;89552;-34
2023/01/28 11:56:16;;;;;;;13.60;10.27;;;5.70;99.90;;;;;;4939296;28;90021;-34
2023/01/28 11:58:58;;;;;;;17.67;10.80;;;5.80;99.90;;;;;;4939983;28;89586;-34
2023/01/28 12:01:37;;;;;;;12.48;8.60;;;5.80;99.90;;;;;;4938971;28;90793;-33
2023/01/28 12:04:21;;;;;;;;;;;5.60;99.90;;;;;;4939609;28;89741;-32
2023/01/28 12:07:05;;;;;;;8.95;7.85;;;5.40;99.90;;;;;;4939627;28;89361;-34
2023/01/28 12:09:38;;;;;;;11.30;8.35;;;5.40;99.90;;;;;;4926051;28;88652;-31
2023/01/28 12:12:30;;;;;;;8.48;7.43;;;5.40;99.90;;;;;;4920472;28;89858;-32
2023/01/28 12:14:59;;;;;;;10.23;8.65;;;5.20;99.90;;;;;;4903602;28;91053;-33
2023/01/28 12:17:30;;;;;;;;;;;5.20;99.90;;;;;;4920732;28;89227;-34
2023/01/28 12:20:34;;;;;;;9.18;7.53;;;5.10;99.90;;;;;;4920420;28;89741;-33
2023/01/28 12:23:30;;;;;;;10.98;9.80;;;5.10;99.90;;;;;;4920567;28;90461;-31
2023/01/28 12:26:05;;;;;;;10.60;8.50;;;5.10;99.90;;;;;;4920365;28;90833;-32
2023/01/28 12:29:07;;;;;;;11.68;9.55;;;5.10;99.90;;;;;;4920165;28;89801;-34
2023/01/28 12:31:49;;;;;;;11.50;8.95;;;5.10;99.90;;;;;;4904728;28;89569;-34
2023/01/28 12:34:35;;;;;;;11.52;9.13;;;5.10;99.90;;;;;;4920509;28;90392;-32
2023/01/28 12:37:21;;;;;;;9.15;7.88;;;5.10;99.90;;;;;;4919872;28;90589;-32
2023/01/28 12:40:10;;;;;;;11.88;9.65;;;5.10;99.90;;;;;;4919624;28;91491;-32
2023/01/28 12:42:50;;;;;;;12.68;9.63;;;5.10;99.90;;;;;;4919859;28;88434;-37
2023/01/28 12:45:18;;;;;;;12.35;9.88;;;5.00;99.90;;;;;;4920070;28;90335;-31
2023/01/28 12:47:54;;;;;;;10.52;9.38;;;5.00;99.90;;;;;;4920618;28;88648;-33
2023/01/28 12:50:46;;;;;;;10.95;9.13;;;4.90;99.90;;;;;;4917700;28;89762;-32
2023/01/28 12:53:24;;;;;;;11.45;9.73;;;4.90;99.90;;;;;;4913780;28;88884;-33
2023/01/28 12:56:02;;;;;;;11.20;9.97;;;4.80;99.90;;;;;;4918234;28;91724;-32
2023/01/28 12:58:53;;;;;;;10.45;9.20;;;4.80;99.90;;;;;;4899879;28;88359;-32
2023/01/28 13:01:26;;;;;;;10.27;8.52;;;4.80;99.90;;;;;;4918370;28;90074;-32
2023/01/28 13:04:21;;;;;;;9.80;8.75;;;4.60;99.90;;;;;;4917522;28;88926;-32
2023/01/28 13:06:57;;;;;;;13.80;8.02;;;4.60;99.90;;;;;;4916709;28;90152;-32
2023/01/28 13:09:25;;;;;;;13.45;8.75;;;4.80;99.90;;;;;;4918272;28;89675;-31
2023/01/28 13:11:55;;;;;;;14.85;8.35;;;4.90;99.90;;;;;;4917910;28;89505;-32
2023/01/28 13:14:27;;;;;;;13.32;10.10;;;5.00;99.90;;;;;;4917383;28;88569;-32
2023/01/28 13:16:52;;;;;;;10.18;9.15;;;5.10;99.90;;;;;;4916741;28;90352;-33
2023/01/28 13:19:18;;;;;;;12.57;9.77;;;5.20;99.90;;;;;;4918161;28;89824;-33
2023/01/28 13:21:46;;;;;;;9.85;8.90;;;5.20;99.90;;;;;;4917197;28;89884;-33
2023/01/28 13:24:14;;;;;;;9.98;8.98;;;5.20;99.90;;;;;;4916801;28;89042;-32
2023/01/28 13:26:55;;;;;;;10.90;9.27;;;5.20;99.90;;;;;;4917066;28;90307;-31
2023/01/28 13:29:24;;;;;;;10.57;9.45;;;5.10;99.90;;;;;;4917660;28;90318;-32
2023/01/28 13:31:52;;;;;;;10.32;8.35;;;5.10;99.90;;;;;;4916501;28;90509;-32